sensor_id;sensor_type;location;lat;lon;timestamp;temperature;humidity
10046;DHT22;5063;50.878;4.742;2022-09-17T00:00:22;10.80;99.90
10046;DHT22;5063;50.878;4.742;2022-09-17T00:02:52;10.80;99.90
10046;DHT22;5063;50.878;4.742;2022-09-17T00:05:24;10.80;99.90
10046;DHT22;5063;50.878;4.742;2022-09-17T00:07:50;10.90;99.90
10046;DHT22;5063;50.878;4.742;2022-09-17T00:10:17;10.90;99.90
10046;DHT22;5063;50.878;4.742;2022-09-17T00:12:44;10.90;99.90
10046;DHT22;5063;50.878;4.742;2022-09-17T00:15:10;10.90;99.90
10046;DHT22;5063;50.878;4.742;2022-09-17T00:17:36;10.90;99.90
10046;DHT22;5063;50.878;4.742;2022-09-17T00:20:03;11.00;99.90
10046;DHT22;5063;50.878;4.742;2022-09-17T00:22:29;10.90;99.90
10046;DHT22;5063;50.878;4.742;2022-09-17T00:24:54;11.00;99.90
10046;DHT22;5063;50.878;4.742;2022-09-17T00:27:20;11.00;99.90
10046;DHT22;5063;50.878;4.742;2022-09-17T00:29:47;11.10;99.90
10046;DHT22;5063;50.878;4.742;2022-09-17T00:32:13;11.10;99.90
10046;DHT22;5063;50.878;4.742;2022-09-17T00:34:38;11.00;99.90
10046;DHT22;5063;50.878;4.742;2022-09-17T00:37:04;11.00;99.90
10046;DHT22;5063;50.878;4.742;2022-09-17T00:39:30;11.10;99.90
10046;DHT22;5063;50.878;4.742;2022-09-17T00:41:56;11.10;99.90
10046;DHT22;5063;50.878;4.742;2022-09-17T00:44:45;11.10;99.90
10046;DHT22;5063;50.878;4.742;2022-09-17T00:47:17;11.00;99.90
10046;DHT22;5063;50.878;4.742;2022-09-17T00:49:44;11.10;99.90
10046;DHT22;5063;50.878;4.742;2022-09-17T00:52:21;11.10;99.90
10046;DHT22;5063;50.878;4.742;2022-09-17T00:54:55;11.10;99.90
10046;DHT22;5063;50.878;4.742;2022-09-17T00:57:23;11.20;99.90
10046;DHT22;5063;50.878;4.742;2022-09-17T00:59:50;11.10;99.90
10046;DHT22;5063;50.878;4.742;2022-09-17T01:02:16;11.10;99.90
10046;DHT22;5063;50.878;4.742;2022-09-17T01:04:41;11.10;99.90
10046;DHT22;5063;50.878;4.742;2022-09-17T01:07:25;11.10;99.90
10046;DHT22;5063;50.878;4.742;2022-09-17T01:10:18;11.10;99.90
10046;DHT22;5063;50.878;4.742;2022-09-17T01:29:02;11.00;99.90
10046;DHT22;5063;50.878;4.742;2022-09-17T01:31:32;11.00;99.90
10046;DHT22;5063;50.878;4.742;2022-09-17T01:34:21;11.00;99.90
10046;DHT22;5063;50.878;4.742;2022-09-17T01:37:07;11.00;99.90
10046;DHT22;5063;50.878;4.742;2022-09-17T01:39:55;10.90;99.90
10046;DHT22;5063;50.878;4.742;2022-09-17T01:42:46;10.90;99.90
10046;DHT22;5063;50.878;4.742;2022-09-17T01:48:19;10.80;99.90
10046;DHT22;5063;50.878;4.742;2022-09-17T01:50:52;10.80;99.90
10046;DHT22;5063;50.878;4.742;2022-09-17T01:53:24;10.80;99.90
10046;DHT22;5063;50.878;4.742;2022-09-17T01:55:54;10.90;99.90
10046;DHT22;5063;50.878;4.742;2022-09-17T01:58:33;10.90;99.90
10046;DHT22;5063;50.878;4.742;2022-09-17T02:01:03;10.90;99.90
10046;DHT22;5063;50.878;4.742;2022-09-17T02:08:44;11.10;99.90
10046;DHT22;5063;50.878;4.742;2022-09-17T02:11:13;11.20;99.90
10046;DHT22;5063;50.878;4.742;2022-09-17T02:13:58;11.20;99.90
10046;DHT22;5063;50.878;4.742;2022-09-17T02:16:27;11.20;99.90
10046;DHT22;5063;50.878;4.742;2022-09-17T02:19:07;11.20;99.90
10046;DHT22;5063;50.878;4.742;2022-09-17T02:24:23;11.20;99.90
10046;DHT22;5063;50.878;4.742;2022-09-17T02:27:13;11.20;99.90
10046;DHT22;5063;50.878;4.742;2022-09-17T02:29:43;11.20;99.90
10046;DHT22;5063;50.878;4.742;2022-09-17T02:32:10;11.20;99.90
10046;DHT22;5063;50.878;4.742;2022-09-17T02:34:37;11.20;99.90
10046;DHT22;5063;50.878;4.742;2022-09-17T02:37:03;11.20;99.90
10046;DHT22;5063;50.878;4.742;2022-09-17T02:39:30;11.20;99.90
10046;DHT22;5063;50.878;4.742;2022-09-17T02:45:04;11.20;99.90
10046;DHT22;5063;50.878;4.742;2022-09-17T02:47:48;11.20;99.90
10046;DHT22;5063;50.878;4.742;2022-09-17T02:56:29;11.30;99.90
10046;DHT22;5063;50.878;4.742;2022-09-17T02:58:55;11.30;99.90
10046;DHT22;5063;50.878;4.742;2022-09-17T03:01:54;11.30;99.90
10046;DHT22;5063;50.878;4.742;2022-09-17T03:04:23;11.30;99.90
10046;DHT22;5063;50.878;4.742;2022-09-17T03:06:51;11.30;99.90
10046;DHT22;5063;50.878;4.742;2022-09-17T03:09:18;11.50;99.90
10046;DHT22;5063;50.878;4.742;2022-09-17T03:11:43;11.30;99.90
10046;DHT22;5063;50.878;4.742;2022-09-17T03:14:09;11.20;99.90
10046;DHT22;5063;50.878;4.742;2022-09-17T03:16:35;11.10;99.90
10046;DHT22;5063;50.878;4.742;2022-09-17T03:19:00;10.90;99.90
10046;DHT22;5063;50.878;4.742;2022-09-17T03:21:26;10.80;99.90
10046;DHT22;5063;50.878;4.742;2022-09-17T03:23:52;10.70;99.90
10046;DHT22;5063;50.878;4.742;2022-09-17T03:26:18;10.50;99.90
10046;DHT22;5063;50.878;4.742;2022-09-17T03:28:44;10.50;99.90
10046;DHT22;5063;50.878;4.742;2022-09-17T03:31:09;10.30;99.90
10046;DHT22;5063;50.878;4.742;2022-09-17T03:33:35;10.30;99.90
10046;DHT22;5063;50.878;4.742;2022-09-17T03:36:01;10.30;99.90
10046;DHT22;5063;50.878;4.742;2022-09-17T03:38:26;10.20;99.90
10046;DHT22;5063;50.878;4.742;2022-09-17T03:41:01;10.30;99.90
10046;DHT22;5063;50.878;4.742;2022-09-17T03:43:27;10.20;99.90
10046;DHT22;5063;50.878;4.742;2022-09-17T03:45:53;10.30;99.90
10046;DHT22;5063;50.878;4.742;2022-09-17T03:48:19;10.10;99.90
10046;DHT22;5063;50.878;4.742;2022-09-17T03:50:44;10.10;99.90
10046;DHT22;5063;50.878;4.742;2022-09-17T03:53:10;10.20;99.90
10046;DHT22;5063;50.878;4.742;2022-09-17T03:55:39;10.10;99.90
10046;DHT22;5063;50.878;4.742;2022-09-17T03:58:05;10.00;99.90
10046;DHT22;5063;50.878;4.742;2022-09-17T04:00:32;10.00;99.90
10046;DHT22;5063;50.878;4.742;2022-09-17T04:02:57;10.00;99.90
10046;DHT22;5063;50.878;4.742;2022-09-17T04:05:23;10.00;99.90
10046;DHT22;5063;50.878;4.742;2022-09-17T04:07:49;10.00;99.90
10046;DHT22;5063;50.878;4.742;2022-09-17T04:10:15;10.00;99.90
10046;DHT22;5063;50.878;4.742;2022-09-17T04:12:41;10.00;99.90
10046;DHT22;5063;50.878;4.742;2022-09-17T04:15:07;10.00;99.90
10046;DHT22;5063;50.878;4.742;2022-09-17T04:17:33;9.80;99.90
10046;DHT22;5063;50.878;4.742;2022-09-17T04:19:59;10.00;99.90
10046;DHT22;5063;50.878;4.742;2022-09-17T04:22:25;9.90;99.90
10046;DHT22;5063;50.878;4.742;2022-09-17T04:24:50;10.00;99.90
10046;DHT22;5063;50.878;4.742;2022-09-17T04:27:17;10.00;99.90
10046;DHT22;5063;50.878;4.742;2022-09-17T04:29:43;10.10;99.90
10046;DHT22;5063;50.878;4.742;2022-09-17T04:32:08;10.10;99.90
10046;DHT22;5063;50.878;4.742;2022-09-17T04:34:34;10.10;99.90
10046;DHT22;5063;50.878;4.742;2022-09-17T04:37:00;10.10;99.90
10046;DHT22;5063;50.878;4.742;2022-09-17T04:39:25;10.10;99.90
10046;DHT22;5063;50.878;4.742;2022-09-17T04:41:51;10.10;99.90
10046;DHT22;5063;50.878;4.742;2022-09-17T04:44:17;10.10;99.90
10046;DHT22;5063;50.878;4.742;2022-09-17T04:46:43;10.10;99.90
10046;DHT22;5063;50.878;4.742;2022-09-17T04:49:08;10.20;99.90
10046;DHT22;5063;50.878;4.742;2022-09-17T04:51:35;10.20;99.90
10046;DHT22;5063;50.878;4.742;2022-09-17T04:54:01;10.20;99.90
10046;DHT22;5063;50.878;4.742;2022-09-17T04:56:27;10.30;99.90
10046;DHT22;5063;50.878;4.742;2022-09-17T04:58:53;10.40;99.90
10046;DHT22;5063;50.878;4.742;2022-09-17T05:01:18;10.30;99.90
10046;DHT22;5063;50.878;4.742;2022-09-17T05:03:44;10.60;99.90
10046;DHT22;5063;50.878;4.742;2022-09-17T05:06:10;10.40;99.90
10046;DHT22;5063;50.878;4.742;2022-09-17T05:08:36;10.40;99.90
10046;DHT22;5063;50.878;4.742;2022-09-17T05:11:02;10.40;99.90
10046;DHT22;5063;50.878;4.742;2022-09-17T05:13:28;10.40;99.90
10046;DHT22;5063;50.878;4.742;2022-09-17T05:15:54;10.40;99.90
10046;DHT22;5063;50.878;4.742;2022-09-17T05:18:23;10.40;99.90
10046;DHT22;5063;50.878;4.742;2022-09-17T05:20:49;10.30;99.90
10046;DHT22;5063;50.878;4.742;2022-09-17T05:23:15;10.30;99.90
10046;DHT22;5063;50.878;4.742;2022-09-17T05:25:40;10.30;99.90
10046;DHT22;5063;50.878;4.742;2022-09-17T05:28:06;10.40;99.90
10046;DHT22;5063;50.878;4.742;2022-09-17T05:30:32;10.40;99.90
10046;DHT22;5063;50.878;4.742;2022-09-17T05:33:03;10.40;99.90
10046;DHT22;5063;50.878;4.742;2022-09-17T05:35:31;10.40;99.90
10046;DHT22;5063;50.878;4.742;2022-09-17T05:37:58;10.50;99.90
10046;DHT22;5063;50.878;4.742;2022-09-17T05:40:24;10.50;99.90
10046;DHT22;5063;50.878;4.742;2022-09-17T05:42:50;10.50;99.90
10046;DHT22;5063;50.878;4.742;2022-09-17T05:45:15;10.50;99.90
10046;DHT22;5063;50.878;4.742;2022-09-17T05:47:41;10.50;99.90
10046;DHT22;5063;50.878;4.742;2022-09-17T05:50:07;10.50;99.90
10046;DHT22;5063;50.878;4.742;2022-09-17T05:52:33;10.60;99.90
10046;DHT22;5063;50.878;4.742;2022-09-17T05:54:58;10.60;99.90
10046;DHT22;5063;50.878;4.742;2022-09-17T05:57:28;10.60;99.90
10046;DHT22;5063;50.878;4.742;2022-09-17T05:59:54;10.70;99.90
10046;DHT22;5063;50.878;4.742;2022-09-17T06:02:20;10.70;99.90
10046;DHT22;5063;50.878;4.742;2022-09-17T06:04:45;10.70;99.90
10046;DHT22;5063;50.878;4.742;2022-09-17T06:07:11;10.70;99.90
10046;DHT22;5063;50.878;4.742;2022-09-17T06:09:37;10.70;99.90
10046;DHT22;5063;50.878;4.742;2022-09-17T06:12:04;10.70;99.90
10046;DHT22;5063;50.878;4.742;2022-09-17T06:14:30;10.80;99.90
10046;DHT22;5063;50.878;4.742;2022-09-17T06:16:55;10.90;99.90
10046;DHT22;5063;50.878;4.742;2022-09-17T06:19:21;10.90;99.90
10046;DHT22;5063;50.878;4.742;2022-09-17T06:21:47;10.90;99.90
10046;DHT22;5063;50.878;4.742;2022-09-17T06:24:15;11.10;99.90
10046;DHT22;5063;50.878;4.742;2022-09-17T06:26:41;11.30;99.90
10046;DHT22;5063;50.878;4.742;2022-09-17T06:29:06;11.40;99.90
10046;DHT22;5063;50.878;4.742;2022-09-17T06:31:32;11.60;99.90
10046;DHT22;5063;50.878;4.742;2022-09-17T06:33:58;11.80;99.90
10046;DHT22;5063;50.878;4.742;2022-09-17T06:36:24;11.60;99.90
10046;DHT22;5063;50.878;4.742;2022-09-17T06:38:50;11.60;99.90
10046;DHT22;5063;50.878;4.742;2022-09-17T06:41:15;11.70;99.90
10046;DHT22;5063;50.878;4.742;2022-09-17T06:43:42;11.60;99.90
10046;DHT22;5063;50.878;4.742;2022-09-17T06:46:09;11.70;99.90
10046;DHT22;5063;50.878;4.742;2022-09-17T06:48:36;11.60;99.90
10046;DHT22;5063;50.878;4.742;2022-09-17T06:51:04;11.60;99.90
10046;DHT22;5063;50.878;4.742;2022-09-17T06:53:30;11.60;99.90
10046;DHT22;5063;50.878;4.742;2022-09-17T06:56:00;11.70;99.90
10046;DHT22;5063;50.878;4.742;2022-09-17T06:58:27;11.70;99.90
10046;DHT22;5063;50.878;4.742;2022-09-17T07:00:57;12.00;99.90
10046;DHT22;5063;50.878;4.742;2022-09-17T07:03:24;12.50;99.90
10046;DHT22;5063;50.878;4.742;2022-09-17T07:05:50;13.70;99.90
10046;DHT22;5063;50.878;4.742;2022-09-17T07:08:17;15.00;99.90
10046;DHT22;5063;50.878;4.742;2022-09-17T07:10:43;15.70;99.90
10046;DHT22;5063;50.878;4.742;2022-09-17T07:13:09;16.20;99.90
10046;DHT22;5063;50.878;4.742;2022-09-17T07:15:34;17.50;99.90
10046;DHT22;5063;50.878;4.742;2022-09-17T07:18:09;18.50;99.90
10046;DHT22;5063;50.878;4.742;2022-09-17T07:20:36;19.10;99.90
10046;DHT22;5063;50.878;4.742;2022-09-17T07:23:02;19.60;99.90
10046;DHT22;5063;50.878;4.742;2022-09-17T07:25:28;20.20;99.90
10046;DHT22;5063;50.878;4.742;2022-09-17T07:27:53;20.70;99.90
10046;DHT22;5063;50.878;4.742;2022-09-17T07:30:20;21.50;99.90
10046;DHT22;5063;50.878;4.742;2022-09-17T07:32:46;21.20;99.90
10046;DHT22;5063;50.878;4.742;2022-09-17T07:35:12;20.00;99.90
10046;DHT22;5063;50.878;4.742;2022-09-17T07:37:38;18.80;99.90
10046;DHT22;5063;50.878;4.742;2022-09-17T07:40:04;17.40;99.90
10046;DHT22;5063;50.878;4.742;2022-09-17T07:42:31;16.20;99.90
10046;DHT22;5063;50.878;4.742;2022-09-17T07:44:58;15.30;99.90
10046;DHT22;5063;50.878;4.742;2022-09-17T07:47:24;14.80;99.90
10046;DHT22;5063;50.878;4.742;2022-09-17T07:49:49;14.40;99.90
10046;DHT22;5063;50.878;4.742;2022-09-17T07:52:15;14.30;99.90
10046;DHT22;5063;50.878;4.742;2022-09-17T07:54:41;14.90;99.90
10046;DHT22;5063;50.878;4.742;2022-09-17T07:57:06;15.40;99.90
10046;DHT22;5063;50.878;4.742;2022-09-17T07:59:32;15.00;99.90
10046;DHT22;5063;50.878;4.742;2022-09-17T08:01:58;14.60;99.90
10046;DHT22;5063;50.878;4.742;2022-09-17T08:04:24;14.40;99.90
10046;DHT22;5063;50.878;4.742;2022-09-17T08:06:50;14.80;99.90
10046;DHT22;5063;50.878;4.742;2022-09-17T08:09:16;15.90;99.90
10046;DHT22;5063;50.878;4.742;2022-09-17T08:11:43;16.50;99.90
10046;DHT22;5063;50.878;4.742;2022-09-17T08:14:10;16.60;99.90
10046;DHT22;5063;50.878;4.742;2022-09-17T08:16:37;16.90;99.90
10046;DHT22;5063;50.878;4.742;2022-09-17T08:19:03;16.90;99.90
10046;DHT22;5063;50.878;4.742;2022-09-17T08:21:28;16.80;99.90
10046;DHT22;5063;50.878;4.742;2022-09-17T08:23:54;16.90;99.90
10046;DHT22;5063;50.878;4.742;2022-09-17T08:26:21;16.40;99.90
10046;DHT22;5063;50.878;4.742;2022-09-17T08:28:49;16.40;99.90
10046;DHT22;5063;50.878;4.742;2022-09-17T08:31:18;17.30;99.90
10046;DHT22;5063;50.878;4.742;2022-09-17T08:33:44;17.20;99.90
10046;DHT22;5063;50.878;4.742;2022-09-17T08:36:12;16.90;99.90
10046;DHT22;5063;50.878;4.742;2022-09-17T08:38:38;15.90;99.90
10046;DHT22;5063;50.878;4.742;2022-09-17T08:46:31;14.60;99.90
10046;DHT22;5063;50.878;4.742;2022-09-17T08:52:09;15.00;99.90
10046;DHT22;5063;50.878;4.742;2022-09-17T08:54:31;14.90;99.90
10046;DHT22;5063;50.878;4.742;2022-09-17T09:00:11;14.50;99.90
10046;DHT22;5063;50.878;4.742;2022-09-17T09:05:45;14.30;99.90
10046;DHT22;5063;50.878;4.742;2022-09-17T09:08:34;14.60;99.90
10046;DHT22;5063;50.878;4.742;2022-09-17T09:11:04;15.30;99.90
10046;DHT22;5063;50.878;4.742;2022-09-17T09:16:40;15.70;99.90
10046;DHT22;5063;50.878;4.742;2022-09-17T09:19:20;15.40;99.90
10046;DHT22;5063;50.878;4.742;2022-09-17T09:24:48;14.70;99.90
10046;DHT22;5063;50.878;4.742;2022-09-17T09:27:27;14.40;99.90
10046;DHT22;5063;50.878;4.742;2022-09-17T09:29:59;14.30;99.90
10046;DHT22;5063;50.878;4.742;2022-09-17T09:35:33;14.10;99.90
10046;DHT22;5063;50.878;4.742;2022-09-17T09:43:45;15.00;99.90
10046;DHT22;5063;50.878;4.742;2022-09-17T09:52:17;14.90;99.90
10046;DHT22;5063;50.878;4.742;2022-09-17T09:57:47;15.00;99.90
10046;DHT22;5063;50.878;4.742;2022-09-17T10:00:29;15.00;99.90
10046;DHT22;5063;50.878;4.742;2022-09-17T10:03:17;15.10;99.90
10046;DHT22;5063;50.878;4.742;2022-09-17T10:06:03;15.50;99.90
10046;DHT22;5063;50.878;4.742;2022-09-17T10:08:34;16.10;99.90
10046;DHT22;5063;50.878;4.742;2022-09-17T10:13:38;16.60;99.90
10046;DHT22;5063;50.878;4.742;2022-09-17T10:16:18;16.30;99.90
10046;DHT22;5063;50.878;4.742;2022-09-17T10:18:45;15.80;99.90
10046;DHT22;5063;50.878;4.742;2022-09-17T10:21:20;15.40;99.90
10046;DHT22;5063;50.878;4.742;2022-09-17T10:23:46;15.10;99.90
10046;DHT22;5063;50.878;4.742;2022-09-17T10:26:42;14.50;99.90
10046;DHT22;5063;50.878;4.742;2022-09-17T10:29:13;13.60;99.90
10046;DHT22;5063;50.878;4.742;2022-09-17T10:34:32;12.80;99.90
10046;DHT22;5063;50.878;4.742;2022-09-17T10:36:58;12.70;99.90
10046;DHT22;5063;50.878;4.742;2022-09-17T10:42:04;12.40;99.90
10046;DHT22;5063;50.878;4.742;2022-09-17T10:44:32;12.30;99.90
10046;DHT22;5063;50.878;4.742;2022-09-17T10:47:14;12.20;99.90
10046;DHT22;5063;50.878;4.742;2022-09-17T10:50:00;12.20;99.90
10046;DHT22;5063;50.878;4.742;2022-09-17T10:52:32;12.10;99.90
10046;DHT22;5063;50.878;4.742;2022-09-17T10:55:28;12.00;99.90
10046;DHT22;5063;50.878;4.742;2022-09-17T11:11:09;13.50;99.90
10046;DHT22;5063;50.878;4.742;2022-09-17T11:13:50;13.50;99.90
10046;DHT22;5063;50.878;4.742;2022-09-17T11:19:41;13.20;99.90
10046;DHT22;5063;50.878;4.742;2022-09-17T11:33:30;13.20;99.90
10046;DHT22;5063;50.878;4.742;2022-09-17T11:36:18;13.20;99.90
10046;DHT22;5063;50.878;4.742;2022-09-17T11:38:50;13.30;99.90
10046;DHT22;5063;50.878;4.742;2022-09-17T11:41:18;13.50;99.90
10046;DHT22;5063;50.878;4.742;2022-09-17T11:46:45;13.60;99.90
10046;DHT22;5063;50.878;4.742;2022-09-17T11:52:04;13.20;99.90
10046;DHT22;5063;50.878;4.742;2022-09-17T11:54:39;13.20;99.90
10046;DHT22;5063;50.878;4.742;2022-09-17T12:02:21;13.50;99.90
10046;DHT22;5063;50.878;4.742;2022-09-17T12:05:02;13.70;99.90
10046;DHT22;5063;50.878;4.742;2022-09-17T12:08:08;13.80;99.90
10046;DHT22;5063;50.878;4.742;2022-09-17T12:10:50;13.90;99.90
10046;DHT22;5063;50.878;4.742;2022-09-17T12:16:21;14.30;99.90
10046;DHT22;5063;50.878;4.742;2022-09-17T12:21:53;14.30;99.90
10046;DHT22;5063;50.878;4.742;2022-09-17T12:24:26;14.50;99.90
10046;DHT22;5063;50.878;4.742;2022-09-17T12:30:09;14.70;99.90
10046;DHT22;5063;50.878;4.742;2022-09-17T12:33:01;15.00;99.90
10046;DHT22;5063;50.878;4.742;2022-09-17T12:41:25;15.20;99.90
10046;DHT22;5063;50.878;4.742;2022-09-17T12:44:10;15.30;99.90
10046;DHT22;5063;50.878;4.742;2022-09-17T12:46:54;15.00;99.90
10046;DHT22;5063;50.878;4.742;2022-09-17T12:49:45;15.00;99.90
10046;DHT22;5063;50.878;4.742;2022-09-17T12:52:45;15.10;99.90
10046;DHT22;5063;50.878;4.742;2022-09-17T13:01:02;15.30;99.90
10046;DHT22;5063;50.878;4.742;2022-09-17T13:03:41;15.50;99.90
10046;DHT22;5063;50.878;4.742;2022-09-17T13:06:29;15.70;99.90
10046;DHT22;5063;50.878;4.742;2022-09-17T13:12:09;15.80;99.90
10046;DHT22;5063;50.878;4.742;2022-09-17T13:14:54;15.80;99.90
10046;DHT22;5063;50.878;4.742;2022-09-17T13:17:25;15.50;99.90
10046;DHT22;5063;50.878;4.742;2022-09-17T13:20:42;15.40;99.90
10046;DHT22;5063;50.878;4.742;2022-09-17T13:22:50;15.50;99.90
10046;DHT22;5063;50.878;4.742;2022-09-17T13:25:19;15.70;99.90
10046;DHT22;5063;50.878;4.742;2022-09-17T13:27:49;15.70;99.90
10046;DHT22;5063;50.878;4.742;2022-09-17T13:30:18;15.90;99.90
10046;DHT22;5063;50.878;4.742;2022-09-17T13:32:52;16.00;99.90
10046;DHT22;5063;50.878;4.742;2022-09-17T13:40:21;16.20;99.90
10046;DHT22;5063;50.878;4.742;2022-09-17T13:42:51;16.40;99.90
10046;DHT22;5063;50.878;4.742;2022-09-17T13:45:21;16.60;99.90
10046;DHT22;5063;50.878;4.742;2022-09-17T13:48:09;17.10;99.90
10046;DHT22;5063;50.878;4.742;2022-09-17T13:50:40;17.30;99.90
10046;DHT22;5063;50.878;4.742;2022-09-17T13:55:50;17.80;99.90
10046;DHT22;5063;50.878;4.742;2022-09-17T14:14:38;13.40;99.90
10046;DHT22;5063;50.878;4.742;2022-09-17T14:17:04;13.40;99.90
10046;DHT22;5063;50.878;4.742;2022-09-17T14:19:49;13.50;99.90
10046;DHT22;5063;50.878;4.742;2022-09-17T14:22:21;13.50;99.90
10046;DHT22;5063;50.878;4.742;2022-09-17T14:24:52;13.60;99.90
10046;DHT22;5063;50.878;4.742;2022-09-17T14:30:28;13.80;99.90
10046;DHT22;5063;50.878;4.742;2022-09-17T14:33:02;14.00;99.90
10046;DHT22;5063;50.878;4.742;2022-09-17T14:35:49;14.10;99.90
10046;DHT22;5063;50.878;4.742;2022-09-17T14:38:37;14.30;99.90
10046;DHT22;5063;50.878;4.742;2022-09-17T14:43:47;14.60;99.90
10046;DHT22;5063;50.878;4.742;2022-09-17T14:46:21;14.80;99.90
10046;DHT22;5063;50.878;4.742;2022-09-17T14:48:47;15.10;99.90
10046;DHT22;5063;50.878;4.742;2022-09-17T14:53:42;15.30;99.90
10046;DHT22;5063;50.878;4.742;2022-09-17T14:56:11;15.50;99.90
10046;DHT22;5063;50.878;4.742;2022-09-17T14:58:42;15.60;99.90
10046;DHT22;5063;50.878;4.742;2022-09-17T15:03:49;15.60;99.90
10046;DHT22;5063;50.878;4.742;2022-09-17T15:06:22;15.50;99.90
10046;DHT22;5063;50.878;4.742;2022-09-17T15:08:48;15.70;99.90
10046;DHT22;5063;50.878;4.742;2022-09-17T15:11:14;15.80;99.90
10046;DHT22;5063;50.878;4.742;2022-09-17T15:13:48;15.60;99.90
10046;DHT22;5063;50.878;4.742;2022-09-17T15:16:24;15.40;99.90
10046;DHT22;5063;50.878;4.742;2022-09-17T15:19:00;15.20;99.90
10046;DHT22;5063;50.878;4.742;2022-09-17T15:21:40;15.10;99.90
10046;DHT22;5063;50.878;4.742;2022-09-17T15:26:48;14.80;99.90
10046;DHT22;5063;50.878;4.742;2022-09-17T15:29:19;14.80;99.90
10046;DHT22;5063;50.878;4.742;2022-09-17T15:31:47;14.80;99.90
10046;DHT22;5063;50.878;4.742;2022-09-17T15:34:13;14.70;99.90
10046;DHT22;5063;50.878;4.742;2022-09-17T15:36:39;14.60;99.90
10046;DHT22;5063;50.878;4.742;2022-09-17T15:39:27;14.40;99.90
10046;DHT22;5063;50.878;4.742;2022-09-17T15:41:56;14.30;99.90
10046;DHT22;5063;50.878;4.742;2022-09-17T15:44:24;14.20;99.90
10046;DHT22;5063;50.878;4.742;2022-09-17T15:46:51;14.10;99.90
10046;DHT22;5063;50.878;4.742;2022-09-17T15:49:34;13.90;99.90
10046;DHT22;5063;50.878;4.742;2022-09-17T15:52:29;13.90;99.90
10046;DHT22;5063;50.878;4.742;2022-09-17T15:55:00;13.80;99.90
10046;DHT22;5063;50.878;4.742;2022-09-17T15:57:30;14.00;99.90
10046;DHT22;5063;50.878;4.742;2022-09-17T16:00:06;14.10;99.90
10046;DHT22;5063;50.878;4.742;2022-09-17T16:02:35;14.00;99.90
10046;DHT22;5063;50.878;4.742;2022-09-17T16:07:50;13.90;99.90
10046;DHT22;5063;50.878;4.742;2022-09-17T16:10:16;13.90;99.90
10046;DHT22;5063;50.878;4.742;2022-09-17T16:12:42;13.80;99.90
10046;DHT22;5063;50.878;4.742;2022-09-17T16:15:09;13.70;99.90
10046;DHT22;5063;50.878;4.742;2022-09-17T16:17:44;13.60;99.90
10046;DHT22;5063;50.878;4.742;2022-09-17T16:20:12;13.60;99.90
10046;DHT22;5063;50.878;4.742;2022-09-17T16:22:39;13.50;99.90
10046;DHT22;5063;50.878;4.742;2022-09-17T16:25:05;13.50;99.90
10046;DHT22;5063;50.878;4.742;2022-09-17T16:30:20;13.50;99.90
10046;DHT22;5063;50.878;4.742;2022-09-17T16:32:46;13.50;99.90
10046;DHT22;5063;50.878;4.742;2022-09-17T16:35:13;13.70;99.90
10046;DHT22;5063;50.878;4.742;2022-09-17T16:37:40;13.80;99.90
10046;DHT22;5063;50.878;4.742;2022-09-17T16:40:07;14.10;99.90
10046;DHT22;5063;50.878;4.742;2022-09-17T16:42:34;14.30;99.90
10046;DHT22;5063;50.878;4.742;2022-09-17T16:45:00;14.20;99.90
10046;DHT22;5063;50.878;4.742;2022-09-17T16:47:28;14.00;99.90
10046;DHT22;5063;50.878;4.742;2022-09-17T16:49:55;13.90;99.90
10046;DHT22;5063;50.878;4.742;2022-09-17T16:52:21;13.80;99.90
10046;DHT22;5063;50.878;4.742;2022-09-17T16:54:47;13.90;99.90
10046;DHT22;5063;50.878;4.742;2022-09-17T16:57:13;14.10;99.90
10046;DHT22;5063;50.878;4.742;2022-09-17T16:59:38;14.30;99.90
10046;DHT22;5063;50.878;4.742;2022-09-17T17:02:04;14.20;99.90
10046;DHT22;5063;50.878;4.742;2022-09-17T17:04:30;14.20;99.90
10046;DHT22;5063;50.878;4.742;2022-09-17T17:06:55;14.20;99.90
10046;DHT22;5063;50.878;4.742;2022-09-17T17:09:21;14.20;99.90
10046;DHT22;5063;50.878;4.742;2022-09-17T17:11:47;14.10;99.90
10046;DHT22;5063;50.878;4.742;2022-09-17T17:14:12;13.90;99.90
10046;DHT22;5063;50.878;4.742;2022-09-17T17:16:38;13.80;99.90
10046;DHT22;5063;50.878;4.742;2022-09-17T17:19:05;13.70;99.90
10046;DHT22;5063;50.878;4.742;2022-09-17T17:21:31;13.50;99.90
10046;DHT22;5063;50.878;4.742;2022-09-17T17:23:57;13.30;99.90
10046;DHT22;5063;50.878;4.742;2022-09-17T17:26:22;13.30;99.90
10046;DHT22;5063;50.878;4.742;2022-09-17T17:28:48;13.30;99.90
10046;DHT22;5063;50.878;4.742;2022-09-17T17:31:14;13.20;99.90
10046;DHT22;5063;50.878;4.742;2022-09-17T17:33:40;13.10;99.90
10046;DHT22;5063;50.878;4.742;2022-09-17T17:36:06;13.20;99.90
10046;DHT22;5063;50.878;4.742;2022-09-17T17:38:31;13.20;99.90
10046;DHT22;5063;50.878;4.742;2022-09-17T17:41:06;13.30;99.90
10046;DHT22;5063;50.878;4.742;2022-09-17T17:43:32;13.10;99.90
10046;DHT22;5063;50.878;4.742;2022-09-17T17:45:58;13.10;99.90
10046;DHT22;5063;50.878;4.742;2022-09-17T17:48:24;13.10;99.90
10046;DHT22;5063;50.878;4.742;2022-09-17T17:50:49;12.90;99.90
10046;DHT22;5063;50.878;4.742;2022-09-17T17:53:16;13.00;99.90
10046;DHT22;5063;50.878;4.742;2022-09-17T17:55:42;13.00;99.90
10046;DHT22;5063;50.878;4.742;2022-09-17T17:58:07;13.00;99.90
10046;DHT22;5063;50.878;4.742;2022-09-17T18:00:33;13.00;99.90
10046;DHT22;5063;50.878;4.742;2022-09-17T18:02:59;12.90;99.90
10046;DHT22;5063;50.878;4.742;2022-09-17T18:05:29;12.90;99.90
10046;DHT22;5063;50.878;4.742;2022-09-17T18:07:55;12.80;99.90
10046;DHT22;5063;50.878;4.742;2022-09-17T18:10:20;12.80;99.90
10046;DHT22;5063;50.878;4.742;2022-09-17T18:12:47;12.60;99.90
10046;DHT22;5063;50.878;4.742;2022-09-17T18:15:15;12.60;99.90
10046;DHT22;5063;50.878;4.742;2022-09-17T18:17:41;12.60;99.90
10046;DHT22;5063;50.878;4.742;2022-09-17T18:20:07;12.60;99.90
10046;DHT22;5063;50.878;4.742;2022-09-17T18:22:34;12.50;99.90
10046;DHT22;5063;50.878;4.742;2022-09-17T18:25:00;12.40;99.90
10046;DHT22;5063;50.878;4.742;2022-09-17T18:27:25;12.40;99.90
10046;DHT22;5063;50.878;4.742;2022-09-17T18:29:52;12.40;99.90
10046;DHT22;5063;50.878;4.742;2022-09-17T18:32:17;12.40;99.90
10046;DHT22;5063;50.878;4.742;2022-09-17T18:34:43;12.40;99.90
10046;DHT22;5063;50.878;4.742;2022-09-17T18:37:09;12.40;99.90
10046;DHT22;5063;50.878;4.742;2022-09-17T18:39:35;12.40;99.90
10046;DHT22;5063;50.878;4.742;2022-09-17T18:42:00;12.40;99.90
10046;DHT22;5063;50.878;4.742;2022-09-17T18:44:26;12.40;99.90
10046;DHT22;5063;50.878;4.742;2022-09-17T18:46:52;12.50;99.90
10046;DHT22;5063;50.878;4.742;2022-09-17T18:49:17;12.50;99.90
10046;DHT22;5063;50.878;4.742;2022-09-17T18:51:43;12.40;99.90
10046;DHT22;5063;50.878;4.742;2022-09-17T18:54:10;12.40;99.90
10046;DHT22;5063;50.878;4.742;2022-09-17T18:56:37;12.60;99.90
10046;DHT22;5063;50.878;4.742;2022-09-17T18:59:03;12.40;99.90
10046;DHT22;5063;50.878;4.742;2022-09-17T19:01:30;12.40;99.90
10046;DHT22;5063;50.878;4.742;2022-09-17T19:03:57;12.50;99.90
10046;DHT22;5063;50.878;4.742;2022-09-17T19:06:23;12.40;99.90
10046;DHT22;5063;50.878;4.742;2022-09-17T19:08:49;12.40;99.90
10046;DHT22;5063;50.878;4.742;2022-09-17T19:11:16;12.50;99.90